createdAt,value
2019-02-23T00:01:21.172Z,5.20
2019-02-23T00:03:50.329Z,5.20
2019-02-23T00:06:29.382Z,5.10
2019-02-23T00:08:50.408Z,5.00
2019-02-23T00:11:19.535Z,5.00
2019-02-23T00:13:48.711Z,4.90
2019-02-23T00:16:17.848Z,4.90
2019-02-23T00:18:46.995Z,4.80
2019-02-23T00:21:16.121Z,4.80
2019-02-23T00:23:45.255Z,4.80
2019-02-23T00:26:14.394Z,4.80
2019-02-23T00:28:43.554Z,4.70
2019-02-23T00:31:12.701Z,4.70
2019-02-23T00:33:41.810Z,4.60
2019-02-23T00:36:10.980Z,4.60
2019-02-23T00:38:40.080Z,4.50
2019-02-23T00:41:09.236Z,4.50
2019-02-23T00:43:38.379Z,4.50
2019-02-23T00:46:07.536Z,4.50
2019-02-23T00:48:36.710Z,4.50
2019-02-23T00:51:05.849Z,4.40
2019-02-23T00:53:35.073Z,4.30
2019-02-23T00:56:04.216Z,4.30
2019-02-23T00:58:33.388Z,4.30
2019-02-23T01:01:02.585Z,4.30
2019-02-23T01:03:31.668Z,4.30
2019-02-23T01:06:00.819Z,4.30
2019-02-23T01:08:29.963Z,4.30
2019-02-23T01:10:59.174Z,4.30
2019-02-23T01:13:28.388Z,4.30
2019-02-23T01:15:58.504Z,4.40
2019-02-23T01:18:27.866Z,4.40
2019-02-23T01:20:57.075Z,4.50
2019-02-23T01:23:26.282Z,4.50
2019-02-23T01:25:55.411Z,4.60
2019-02-23T01:28:24.620Z,4.60
2019-02-23T01:30:53.831Z,4.60
2019-02-23T01:33:22.967Z,4.60
2019-02-23T01:35:52.099Z,4.60
2019-02-23T01:38:21.232Z,4.60
2019-02-23T01:40:50.369Z,4.60
2019-02-23T01:43:19.579Z,4.60
2019-02-23T01:45:48.759Z,4.50
2019-02-23T01:48:17.949Z,4.50
2019-02-23T01:50:47.090Z,4.50
2019-02-23T01:53:16.229Z,4.50
2019-02-23T01:55:45.393Z,4.50
2019-02-23T01:58:14.544Z,4.40
2019-02-23T02:00:43.715Z,4.40
2019-02-23T02:03:12.939Z,4.30
2019-02-23T02:05:42.015Z,4.30
2019-02-23T02:08:11.169Z,4.20
2019-02-23T02:10:40.323Z,4.20
2019-02-23T02:13:09.863Z,4.10
2019-02-23T02:15:39.589Z,4.10
2019-02-23T02:18:08.754Z,4.00
2019-02-23T02:20:37.867Z,4.00
2019-02-23T02:23:06.999Z,3.90
2019-02-23T02:25:36.207Z,3.90
2019-02-23T02:28:05.350Z,3.80
2019-02-23T02:30:34.581Z,3.80
2019-02-23T02:33:03.754Z,3.70
2019-02-23T02:35:32.944Z,3.70
2019-02-23T02:38:02.086Z,3.70
2019-02-23T02:40:31.208Z,3.60
2019-02-23T02:43:00.362Z,3.60
2019-02-23T02:45:29.467Z,3.50
2019-02-23T02:47:58.631Z,3.50
2019-02-23T02:50:27.828Z,3.40
2019-02-23T02:52:56.980Z,3.40
2019-02-23T02:55:26.245Z,3.30
2019-02-23T02:57:55.376Z,3.30
2019-02-23T03:00:24.532Z,3.20
2019-02-23T03:02:53.730Z,3.20
2019-02-23T03:05:22.880Z,3.10
2019-02-23T03:07:52.034Z,3.10
2019-02-23T03:10:21.224Z,3.10
2019-02-23T03:12:50.369Z,3.10
2019-02-23T03:15:19.501Z,3.10
2019-02-23T03:17:48.630Z,3.00
2019-02-23T03:20:17.768Z,3.00
2019-02-23T03:22:47.033Z,3.00
2019-02-23T03:25:16.108Z,3.00
2019-02-23T03:27:45.323Z,3.00
2019-02-23T03:30:14.519Z,3.00
2019-02-23T03:32:43.707Z,3.00
2019-02-23T03:35:12.928Z,3.00
2019-02-23T03:37:42.078Z,3.00
2019-02-23T03:40:11.238Z,3.10
2019-02-23T03:42:40.373Z,3.00
2019-02-23T03:45:09.955Z,3.10
2019-02-23T03:47:39.141Z,3.10
2019-02-23T03:50:08.541Z,3.00
2019-02-23T03:52:37.656Z,3.00
2019-02-23T03:55:06.919Z,3.00
2019-02-23T03:57:36.086Z,3.00
2019-02-23T04:00:05.746Z,3.00
2019-02-23T04:02:34.900Z,2.90
2019-02-23T04:05:04.052Z,2.90
2019-02-23T04:07:33.206Z,2.90
2019-02-23T04:10:02.337Z,2.90
2019-02-23T04:12:31.564Z,2.90
2019-02-23T04:15:00.725Z,2.90
2019-02-23T04:17:29.914Z,2.90
2019-02-23T04:19:59.054Z,2.90
2019-02-23T04:22:28.195Z,2.80
2019-02-23T04:24:57.520Z,2.80
2019-02-23T04:27:26.649Z,2.80
2019-02-23T04:29:55.796Z,2.70
2019-02-23T04:32:24.901Z,2.70
2019-02-23T04:34:54.048Z,2.60
2019-02-23T04:37:23.231Z,2.60
2019-02-23T04:39:52.337Z,2.60
2019-02-23T04:42:21.558Z,2.60
2019-02-23T04:44:50.669Z,2.60
2019-02-23T04:47:19.822Z,2.60
2019-02-23T04:49:54.245Z,2.60
2019-02-23T04:52:23.385Z,2.60
2019-02-23T04:54:52.449Z,2.60
2019-02-23T04:57:21.581Z,2.60
2019-02-23T04:59:50.781Z,2.60
2019-02-23T05:02:19.978Z,2.70
2019-02-23T05:04:49.095Z,2.70
2019-02-23T05:07:18.246Z,2.70
2019-02-23T05:09:47.411Z,2.70
2019-02-23T05:12:16.533Z,2.70
2019-02-23T05:14:45.671Z,2.80
2019-02-23T05:17:14.853Z,2.80
2019-02-23T05:19:44.012Z,2.80
2019-02-23T05:22:13.144Z,2.90
2019-02-23T05:24:42.263Z,2.90
2019-02-23T05:27:11.438Z,2.90
2019-02-23T05:29:40.578Z,3.00
2019-02-23T05:32:09.749Z,3.00
2019-02-23T05:34:38.855Z,3.00
2019-02-23T05:37:08.001Z,3.00
2019-02-23T05:39:37.071Z,3.00
2019-02-23T05:42:06.221Z,3.10
2019-02-23T05:44:35.341Z,3.10
2019-02-23T05:47:04.805Z,3.10
2019-02-23T05:49:36.845Z,3.10
2019-02-23T05:52:04.903Z,3.10
2019-02-23T05:54:34.032Z,3.10
2019-02-23T05:57:03.191Z,3.10
2019-02-23T05:59:32.344Z,3.10
2019-02-23T06:02:01.493Z,3.10
2019-02-23T06:04:30.678Z,3.10
2019-02-23T06:06:59.743Z,3.00
2019-02-23T06:09:28.882Z,3.00
2019-02-23T06:11:57.975Z,3.00
2019-02-23T06:14:27.127Z,3.10
2019-02-23T06:16:56.288Z,3.10
2019-02-23T06:19:25.564Z,3.10
2019-02-23T06:21:54.829Z,3.10
2019-02-23T06:24:23.928Z,3.10
2019-02-23T06:26:53.094Z,3.20
2019-02-23T06:29:22.236Z,3.20
2019-02-23T06:31:51.393Z,3.20
2019-02-23T06:34:20.538Z,3.20
2019-02-23T06:36:49.683Z,3.20
2019-02-23T06:39:18.945Z,3.20
2019-02-23T06:41:48.205Z,3.20
2019-02-23T06:44:17.390Z,3.20
2019-02-23T06:46:46.521Z,3.20
2019-02-23T06:49:15.715Z,3.20
2019-02-23T06:51:44.888Z,3.20
2019-02-23T06:54:14.111Z,3.30
2019-02-23T06:56:43.286Z,3.30
2019-02-23T06:59:12.494Z,3.30
2019-02-23T07:01:41.713Z,3.30
2019-02-23T07:04:10.881Z,3.30
2019-02-23T07:06:40.048Z,3.30
2019-02-23T07:09:09.197Z,3.30
2019-02-23T07:11:38.281Z,3.30
2019-02-23T07:14:07.518Z,3.40
2019-02-23T07:16:36.654Z,3.40
2019-02-23T07:19:05.834Z,3.40
2019-02-23T07:21:35.004Z,3.50
2019-02-23T07:24:04.169Z,3.50
2019-02-23T07:26:33.327Z,3.50
2019-02-23T07:29:02.494Z,3.60
2019-02-23T07:31:31.702Z,3.60
2019-02-23T07:34:00.800Z,3.70
2019-02-23T07:36:30.050Z,3.70
2019-02-23T07:38:59.164Z,3.80
2019-02-23T07:41:28.338Z,3.80
2019-02-23T07:43:57.477Z,3.90
2019-02-23T07:46:26.586Z,3.90
2019-02-23T07:48:55.731Z,3.90
2019-02-23T07:51:24.863Z,3.90
2019-02-23T07:53:54.002Z,4.00
2019-02-23T07:56:23.172Z,4.00
2019-02-23T07:58:55.549Z,4.10
2019-02-23T08:01:24.687Z,4.20
2019-02-23T08:03:53.805Z,4.20
2019-02-23T08:06:22.966Z,4.30
2019-02-23T08:08:52.126Z,4.30
2019-02-23T08:11:21.282Z,4.40
2019-02-23T08:13:50.416Z,4.50
2019-02-23T08:16:19.567Z,4.50
2019-02-23T08:18:48.746Z,4.50
2019-02-23T08:21:17.865Z,4.60
2019-02-23T08:23:47.482Z,4.60
2019-02-23T08:26:16.627Z,4.60
2019-02-23T08:28:45.822Z,4.70
2019-02-23T08:31:14.964Z,4.70
2019-02-23T08:33:44.142Z,4.80
2019-02-23T08:36:13.286Z,4.80
2019-02-23T08:38:42.465Z,4.80
2019-02-23T08:41:11.624Z,4.90
2019-02-23T08:43:40.792Z,5.00
2019-02-23T08:46:09.969Z,5.00
2019-02-23T08:48:39.131Z,5.00
2019-02-23T08:51:08.298Z,5.00
2019-02-23T08:53:37.430Z,5.10
2019-02-23T08:56:06.597Z,5.20
2019-02-23T08:58:35.706Z,5.20
2019-02-23T09:01:04.880Z,5.20
2019-02-23T09:03:34.002Z,5.30
2019-02-23T09:06:03.181Z,5.30
2019-02-23T09:08:32.387Z,5.40
2019-02-23T09:11:01.511Z,5.50
2019-02-23T09:13:30.667Z,5.50
2019-02-23T09:15:59.830Z,5.50
2019-02-23T09:18:28.985Z,5.60
2019-02-23T09:20:58.160Z,5.60
2019-02-23T09:23:27.333Z,5.70
2019-02-23T09:25:57.836Z,5.80
2019-02-23T09:28:27.216Z,5.90
2019-02-23T09:30:56.371Z,6.00
2019-02-23T09:33:25.563Z,6.10
2019-02-23T09:35:54.689Z,6.10
2019-02-23T09:38:23.852Z,6.30
2019-02-23T09:40:53.007Z,6.40
2019-02-23T09:43:22.129Z,6.50
2019-02-23T09:45:51.252Z,6.50
2019-02-23T09:48:20.367Z,6.60
2019-02-23T09:50:49.513Z,6.70
2019-02-23T09:53:18.696Z,6.80
2019-02-23T09:55:47.830Z,6.90
2019-02-23T09:58:17.035Z,7.00
2019-02-23T10:00:46.200Z,7.10
2019-02-23T10:03:15.362Z,7.20
2019-02-23T10:05:44.538Z,7.30
2019-02-23T10:08:13.756Z,7.40
2019-02-23T10:10:42.930Z,7.50
2019-02-23T10:13:12.059Z,7.50
2019-02-23T10:15:41.191Z,7.60
2019-02-23T10:18:10.337Z,7.80
2019-02-23T10:20:39.477Z,7.90
2019-02-23T10:23:08.624Z,8.00
2019-02-23T10:25:37.761Z,8.10
2019-02-23T10:28:06.925Z,8.30
2019-02-23T10:30:36.083Z,8.40
2019-02-23T10:33:05.243Z,8.60
2019-02-23T10:35:34.467Z,8.80
2019-02-23T10:38:03.620Z,8.90
2019-02-23T10:40:32.750Z,9.00
2019-02-23T10:43:01.888Z,9.10
2019-02-23T10:45:31.008Z,9.10
2019-02-23T10:48:00.155Z,9.20
2019-02-23T10:50:29.297Z,9.40
2019-02-23T10:52:58.427Z,9.50
2019-02-23T10:55:27.592Z,9.60
2019-02-23T10:57:56.765Z,9.70
2019-02-23T11:00:25.985Z,9.90
2019-02-23T11:02:55.161Z,10.00
2019-02-23T11:05:24.904Z,10.10
2019-02-23T11:07:54.039Z,10.20
2019-02-23T11:10:23.372Z,10.30
2019-02-23T11:12:52.558Z,10.40
2019-02-23T11:15:22.448Z,10.50
2019-02-23T11:17:51.568Z,10.60
2019-02-23T11:20:21.293Z,10.70
2019-02-23T11:22:50.453Z,10.80
2019-02-23T11:25:19.896Z,10.90
2019-02-23T11:27:49.042Z,11.00
2019-02-23T11:30:18.287Z,11.10
2019-02-23T11:32:47.447Z,11.20
2019-02-23T11:35:17.907Z,11.30
2019-02-23T11:37:47.412Z,11.30
2019-02-23T11:40:16.550Z,11.40
2019-02-23T11:42:45.748Z,11.50
2019-02-23T11:45:14.927Z,11.50
2019-02-23T11:47:44.144Z,11.60
2019-02-23T11:50:13.493Z,11.80
2019-02-23T11:52:42.658Z,11.90
2019-02-23T11:55:11.804Z,12.00
2019-02-23T11:57:40.970Z,12.00
2019-02-23T12:00:10.283Z,12.20
2019-02-23T12:02:39.515Z,12.30
2019-02-23T12:05:09.060Z,12.50
2019-02-23T12:07:38.236Z,12.50
2019-02-23T12:10:09.460Z,12.50
2019-02-23T12:12:38.604Z,12.50
2019-02-23T12:15:08.043Z,12.60
2019-02-23T12:17:37.180Z,12.70
2019-02-23T12:20:06.524Z,12.70
2019-02-23T12:22:35.692Z,12.80
2019-02-23T12:25:04.951Z,12.80
2019-02-23T12:27:34.115Z,12.90
2019-02-23T12:30:03.338Z,13.10
2019-02-23T12:32:32.512Z,13.20
2019-02-23T12:35:01.697Z,13.40
2019-02-23T12:37:30.844Z,13.50
2019-02-23T12:39:59.982Z,13.50
2019-02-23T12:42:29.212Z,13.50
2019-02-23T12:44:58.442Z,13.50
2019-02-23T12:47:27.592Z,13.50
2019-02-23T12:49:56.792Z,13.60
2019-02-23T12:52:26.050Z,13.50
2019-02-23T12:54:55.190Z,13.40
2019-02-23T12:57:24.319Z,13.40
2019-02-23T12:59:53.496Z,13.50
2019-02-23T13:02:22.739Z,13.50
2019-02-23T13:04:51.989Z,13.70
2019-02-23T13:07:21.132Z,13.90
2019-02-23T13:09:52.655Z,14.00
2019-02-23T13:13:04.755Z,14.10
2019-02-23T13:15:45.053Z,14.10
2019-02-23T13:18:38.951Z,14.30
2019-02-23T13:21:39.285Z,14.50
2019-02-23T13:24:34.127Z,14.40
2019-02-23T13:27:47.505Z,14.60
2019-02-23T13:30:57.875Z,14.80
2019-02-23T13:34:22.285Z,14.80
2019-02-23T13:37:22.279Z,15.00
2019-02-23T13:39:59.451Z,15.00
2019-02-23T13:43:18.528Z,15.00
2019-02-23T13:46:04.074Z,14.90
2019-02-23T13:48:59.383Z,14.90
2019-02-23T13:51:52.341Z,15.00
2019-02-23T13:54:49.767Z,15.20
2019-02-23T13:57:49.912Z,15.20
2019-02-23T14:00:43.719Z,15.20
2019-02-23T14:03:38.482Z,15.10
2019-02-23T14:06:37.708Z,14.90
2019-02-23T14:09:36.899Z,14.90
2019-02-23T14:12:46.010Z,14.60
2019-02-23T14:15:37.886Z,14.50
2019-02-23T14:18:46.171Z,14.30
2019-02-23T14:21:42.944Z,14.10
2019-02-23T14:24:50.084Z,14.00
2019-02-23T14:27:59.067Z,13.80
2019-02-23T14:30:51.548Z,13.60
2019-02-23T14:33:52.122Z,13.50
2019-02-23T14:36:27.499Z,13.40
2019-02-23T14:39:36.999Z,13.40
2019-02-23T14:42:40.546Z,13.40
2019-02-23T14:45:53.587Z,13.50
2019-02-23T14:49:03.437Z,13.60
2019-02-23T14:52:09.507Z,13.70
2019-02-23T14:55:03.690Z,13.90
2019-02-23T14:58:28.299Z,13.90
2019-02-23T15:01:28.170Z,13.80
2019-02-23T15:04:27.540Z,13.70
2019-02-23T15:07:14.464Z,13.60
2019-02-23T15:10:13.291Z,13.50
2019-02-23T15:13:01.175Z,13.40
2019-02-23T15:15:44.463Z,13.30
2019-02-23T15:18:44.547Z,13.10
2019-02-23T15:21:44.829Z,13.00
2019-02-23T15:24:35.988Z,12.70
2019-02-23T15:27:33.640Z,12.50
2019-02-23T15:30:24.510Z,12.40
2019-02-23T15:33:22.968Z,12.40
2019-02-23T15:36:23.020Z,12.20
2019-02-23T15:39:23.298Z,12.00
2019-02-23T15:42:21.685Z,11.90
2019-02-23T15:45:35.835Z,11.80
2019-02-23T15:48:42.150Z,11.60
2019-02-23T15:51:11.405Z,11.60
2019-02-23T15:53:40.607Z,11.50
2019-02-23T15:56:09.890Z,11.40
2019-02-23T15:58:39.090Z,11.20
2019-02-23T16:01:08.316Z,11.10
2019-02-23T16:03:37.518Z,10.90
2019-02-23T16:06:06.729Z,10.80
2019-02-23T16:08:35.942Z,10.80
2019-02-23T16:11:05.184Z,10.70
2019-02-23T16:13:34.532Z,10.60
2019-02-23T16:16:03.838Z,10.50
2019-02-23T16:18:33.064Z,10.40
2019-02-23T16:21:02.230Z,10.30
2019-02-23T16:23:35.415Z,10.20
2019-02-23T16:26:02.472Z,10.10
2019-02-23T16:28:31.635Z,10.10
2019-02-23T16:31:00.802Z,10.00
2019-02-23T16:33:30.038Z,9.90
2019-02-23T16:35:59.200Z,9.80
2019-02-23T16:38:28.387Z,9.80
2019-02-23T16:40:57.558Z,9.70
2019-02-23T16:43:26.704Z,9.60
2019-02-23T16:45:55.893Z,9.60
2019-02-23T16:48:25.070Z,9.40
2019-02-23T16:50:54.263Z,9.30
2019-02-23T16:53:23.433Z,9.20
2019-02-23T16:55:52.623Z,9.10
2019-02-23T16:58:21.823Z,9.00
2019-02-23T17:00:52.181Z,9.00
2019-02-23T17:03:21.369Z,8.80
2019-02-23T17:05:52.001Z,8.80
2019-02-23T17:08:21.162Z,8.70
2019-02-23T17:10:50.573Z,8.60
2019-02-23T17:13:23.153Z,8.50
2019-02-23T17:15:52.307Z,8.50
2019-02-23T17:18:21.450Z,8.40
2019-02-23T17:20:50.892Z,8.40
2019-02-23T17:23:20.087Z,8.30
2019-02-23T17:25:49.229Z,8.30
2019-02-23T17:28:18.394Z,8.20
2019-02-23T17:30:47.538Z,8.20
2019-02-23T17:33:16.700Z,8.10
2019-02-23T17:35:45.882Z,8.00
2019-02-23T17:38:16.358Z,8.00
2019-02-23T17:40:45.949Z,7.90
2019-02-23T17:43:15.048Z,7.80
2019-02-23T17:45:44.208Z,7.80
2019-02-23T17:48:13.421Z,7.70
2019-02-23T17:50:42.715Z,7.70
2019-02-23T17:53:11.893Z,7.70
2019-02-23T17:55:41.152Z,7.60
2019-02-23T17:58:10.335Z,7.60
2019-02-23T18:00:39.583Z,7.60
2019-02-23T18:03:08.817Z,7.60
2019-02-23T18:05:38.148Z,7.50
2019-02-23T18:08:07.461Z,7.50
2019-02-23T18:10:36.639Z,7.50
2019-02-23T18:13:05.868Z,7.40
2019-02-23T18:15:35.027Z,7.40
2019-02-23T18:18:04.186Z,7.30
2019-02-23T18:20:33.345Z,7.30
2019-02-23T18:23:02.493Z,7.30
2019-02-23T18:25:31.695Z,7.20
2019-02-23T18:28:00.856Z,7.10
2019-02-23T18:30:30.036Z,7.10
2019-02-23T18:32:59.479Z,7.10
2019-02-23T18:35:28.718Z,7.00
2019-02-23T18:37:57.990Z,7.00
2019-02-23T18:40:41.010Z,6.90
2019-02-23T18:43:10.223Z,6.90
2019-02-23T18:45:47.246Z,6.80
2019-02-23T18:48:10.289Z,6.70
2019-02-23T18:50:39.564Z,6.70
2019-02-23T18:53:08.751Z,6.70
2019-02-23T18:55:41.031Z,6.70
2019-02-23T18:58:08.799Z,6.60
2019-02-23T19:00:38.277Z,6.60
2019-02-23T19:03:07.557Z,6.50
2019-02-23T19:05:36.850Z,6.40
2019-02-23T19:08:06.103Z,6.40
2019-02-23T19:10:35.259Z,6.40
2019-02-23T19:13:04.487Z,6.40
2019-02-23T19:15:33.629Z,6.40
2019-02-23T19:18:02.881Z,6.30
2019-02-23T19:20:32.070Z,6.30
2019-02-23T19:23:01.197Z,6.20
2019-02-23T19:25:30.360Z,6.20
2019-02-23T19:27:59.531Z,5.90
2019-02-23T19:30:28.696Z,5.80
2019-02-23T19:32:57.861Z,5.70
2019-02-23T19:35:27.039Z,5.60
2019-02-23T19:37:56.258Z,5.50
2019-02-23T19:40:25.430Z,5.40
2019-02-23T19:42:54.626Z,5.40
2019-02-23T19:45:23.790Z,5.30
2019-02-23T19:47:52.998Z,5.30
2019-02-23T19:50:29.345Z,5.30
2019-02-23T19:52:58.509Z,5.20
2019-02-23T19:55:27.768Z,5.20
2019-02-23T19:57:56.916Z,5.20
2019-02-23T20:00:26.087Z,5.10
2019-02-23T20:02:55.711Z,4.90
2019-02-23T20:05:24.852Z,4.90
2019-02-23T20:07:54.060Z,4.80
2019-02-23T20:10:23.217Z,4.70
2019-02-23T20:12:52.456Z,4.60
2019-02-23T20:15:21.617Z,4.50
2019-02-23T20:17:50.729Z,4.50
2019-02-23T20:20:19.887Z,4.50
2019-02-23T20:22:49.036Z,4.40
2019-02-23T20:25:18.326Z,4.40
2019-02-23T20:27:47.461Z,4.40
2019-02-23T20:30:16.629Z,4.30
2019-02-23T20:32:45.910Z,4.20
2019-02-23T20:35:15.132Z,4.10
2019-02-23T20:37:44.311Z,4.10
2019-02-23T20:40:13.466Z,4.00
2019-02-23T20:42:42.618Z,3.90
2019-02-23T20:45:11.879Z,3.90
2019-02-23T20:47:41.130Z,3.80
2019-02-23T20:50:10.675Z,3.70
2019-02-23T20:52:39.967Z,3.60
2019-02-23T20:55:09.238Z,3.40
2019-02-23T20:57:38.423Z,3.40
2019-02-23T21:00:07.712Z,3.40
2019-02-23T21:02:36.897Z,3.30
2019-02-23T21:05:06.806Z,3.20
2019-02-23T21:07:36.031Z,3.20
2019-02-23T21:10:05.834Z,3.10
2019-02-23T21:12:35.719Z,3.10
2019-02-23T21:15:05.285Z,3.10
2019-02-23T21:17:34.439Z,3.10
2019-02-23T21:20:03.600Z,3.00
2019-02-23T21:22:32.758Z,3.00
2019-02-23T21:25:01.902Z,3.00
2019-02-23T21:27:31.070Z,2.90
2019-02-23T21:30:00.296Z,2.90
2019-02-23T21:32:29.470Z,3.00
2019-02-23T21:34:58.951Z,3.10
2019-02-23T21:37:28.106Z,3.10
2019-02-23T21:39:57.307Z,3.10
2019-02-23T21:42:26.485Z,3.00
2019-02-23T21:44:55.648Z,3.00
2019-02-23T21:47:24.824Z,2.90
2019-02-23T21:49:53.981Z,2.80
2019-02-23T21:52:23.129Z,2.80
2019-02-23T21:54:52.279Z,2.80
2019-02-23T21:57:22.393Z,2.90
2019-02-23T21:59:51.681Z,2.90
2019-02-23T22:02:20.968Z,2.80
2019-02-23T22:04:50.168Z,2.70
2019-02-23T22:07:19.401Z,2.70
2019-02-23T22:09:48.718Z,2.60
2019-02-23T22:12:17.885Z,2.50
2019-02-23T22:14:47.051Z,2.60
2019-02-23T22:17:16.266Z,2.60
2019-02-23T22:19:45.716Z,2.70
2019-02-23T22:22:14.893Z,2.80
2019-02-23T22:24:44.161Z,2.90
2019-02-23T22:27:13.270Z,3.00
2019-02-23T22:29:42.434Z,3.10
2019-02-23T22:32:11.619Z,3.10
2019-02-23T22:34:40.877Z,3.10
2019-02-23T22:37:10.090Z,3.10
2019-02-23T22:39:39.256Z,3.10
2019-02-23T22:42:08.437Z,3.10
2019-02-23T22:44:37.597Z,3.10
2019-02-23T22:47:06.737Z,2.90
2019-02-23T22:49:35.871Z,2.70
2019-02-23T22:52:05.037Z,2.60
2019-02-23T22:54:34.190Z,2.60
2019-02-23T22:57:04.451Z,2.60
2019-02-23T22:59:33.824Z,2.60
2019-02-23T23:02:03.749Z,2.70
2019-02-23T23:04:32.853Z,2.80
2019-02-23T23:07:02.013Z,2.80
2019-02-23T23:09:31.165Z,2.90
2019-02-23T23:12:00.397Z,2.90
2019-02-23T23:14:29.541Z,2.90
2019-02-23T23:16:58.712Z,2.90
2019-02-23T23:19:27.855Z,2.90
2019-02-23T23:21:56.957Z,3.00
2019-02-23T23:24:26.193Z,3.00
2019-02-23T23:26:55.341Z,3.00
2019-02-23T23:29:24.475Z,3.00
2019-02-23T23:31:53.575Z,3.00
2019-02-23T23:34:22.743Z,3.00
2019-02-23T23:36:51.889Z,3.00
2019-02-23T23:39:21.048Z,3.00
2019-02-23T23:41:50.214Z,3.00
2019-02-23T23:44:19.339Z,3.00
2019-02-23T23:46:48.491Z,2.90
2019-02-23T23:49:17.630Z,3.00
2019-02-23T23:51:46.734Z,3.00
2019-02-23T23:54:15.877Z,3.00
2019-02-23T23:56:45.062Z,3.10
2019-02-23T23:59:14.257Z,3.10
